sensor_id;sensor_type;location;lat;lon;timestamp;P1;durP1;ratioP1;P2;durP2;ratioP2
17794;SDS011;9021;50.882;4.326;2023-04-15T00:00:36;7.03;;;3.33;;
17794;SDS011;9021;50.882;4.326;2023-04-15T00:03:02;3.83;;;3.05;;
17794;SDS011;9021;50.882;4.326;2023-04-15T00:05:29;3.72;;;2.35;;
17794;SDS011;9021;50.882;4.326;2023-04-15T00:10:21;5.07;;;2.45;;
17794;SDS011;9021;50.882;4.326;2023-04-15T00:12:46;4.13;;;2.78;;
17794;SDS011;9021;50.882;4.326;2023-04-15T00:15:12;3.78;;;2.40;;
17794;SDS011;9021;50.882;4.326;2023-04-15T00:17:38;4.07;;;2.55;;
17794;SDS011;9021;50.882;4.326;2023-04-15T00:20:04;4.00;;;2.58;;
17794;SDS011;9021;50.882;4.326;2023-04-15T00:22:30;5.78;;;3.05;;
17794;SDS011;9021;50.882;4.326;2023-04-15T00:24:56;3.97;;;3.15;;
17794;SDS011;9021;50.882;4.326;2023-04-15T00:27:22;6.53;;;3.80;;
17794;SDS011;9021;50.882;4.326;2023-04-15T00:29:48;4.03;;;2.97;;
17794;SDS011;9021;50.882;4.326;2023-04-15T00:32:14;4.60;;;3.33;;
17794;SDS011;9021;50.882;4.326;2023-04-15T00:34:40;4.07;;;3.63;;
17794;SDS011;9021;50.882;4.326;2023-04-15T00:37:08;5.82;;;3.60;;
17794;SDS011;9021;50.882;4.326;2023-04-15T00:39:34;4.85;;;3.45;;
17794;SDS011;9021;50.882;4.326;2023-04-15T00:42:00;5.57;;;3.25;;
17794;SDS011;9021;50.882;4.326;2023-04-15T00:44:28;6.57;;;3.35;;
17794;SDS011;9021;50.882;4.326;2023-04-15T00:46:53;7.95;;;2.92;;
17794;SDS011;9021;50.882;4.326;2023-04-15T00:51:45;6.68;;;3.47;;
17794;SDS011;9021;50.882;4.326;2023-04-15T00:54:11;4.63;;;3.13;;
17794;SDS011;9021;50.882;4.326;2023-04-15T00:56:37;6.15;;;3.63;;
17794;SDS011;9021;50.882;4.326;2023-04-15T00:59:04;3.13;;;2.80;;
17794;SDS011;9021;50.882;4.326;2023-04-15T01:01:32;5.63;;;3.20;;
17794;SDS011;9021;50.882;4.326;2023-04-15T01:03:59;4.68;;;3.35;;
17794;SDS011;9021;50.882;4.326;2023-04-15T01:06:25;6.13;;;3.60;;
17794;SDS011;9021;50.882;4.326;2023-04-15T01:08:52;6.10;;;2.92;;
17794;SDS011;9021;50.882;4.326;2023-04-15T01:11:18;5.10;;;3.05;;
17794;SDS011;9021;50.882;4.326;2023-04-15T01:13:45;4.32;;;2.90;;
17794;SDS011;9021;50.882;4.326;2023-04-15T01:16:11;4.35;;;3.22;;
17794;SDS011;9021;50.882;4.326;2023-04-15T01:18:38;6.75;;;3.30;;
17794;SDS011;9021;50.882;4.326;2023-04-15T01:21:05;8.77;;;3.00;;
17794;SDS011;9021;50.882;4.326;2023-04-15T01:23:32;5.07;;;3.13;;
17794;SDS011;9021;50.882;4.326;2023-04-15T01:26:00;4.63;;;3.42;;
17794;SDS011;9021;50.882;4.326;2023-04-15T01:28:27;3.55;;;2.95;;
17794;SDS011;9021;50.882;4.326;2023-04-15T01:31:12;4.18;;;3.20;;
17794;SDS011;9021;50.882;4.326;2023-04-15T01:33:39;3.63;;;2.45;;
17794;SDS011;9021;50.882;4.326;2023-04-15T01:36:06;2.80;;;2.10;;
17794;SDS011;9021;50.882;4.326;2023-04-15T01:38:34;4.28;;;2.08;;
17794;SDS011;9021;50.882;4.326;2023-04-15T01:41:00;4.50;;;2.10;;
17794;SDS011;9021;50.882;4.326;2023-04-15T01:43:26;3.97;;;1.90;;
17794;SDS011;9021;50.882;4.326;2023-04-15T01:45:52;2.00;;;1.60;;
17794;SDS011;9021;50.882;4.326;2023-04-15T01:48:18;5.07;;;3.55;;
17794;SDS011;9021;50.882;4.326;2023-04-15T01:50:44;5.82;;;1.50;;
17794;SDS011;9021;50.882;4.326;2023-04-15T01:53:10;3.03;;;1.83;;
17794;SDS011;9021;50.882;4.326;2023-04-15T01:55:36;3.13;;;2.00;;
17794;SDS011;9021;50.882;4.326;2023-04-15T01:58:02;3.47;;;2.15;;
17794;SDS011;9021;50.882;4.326;2023-04-15T02:00:27;3.33;;;1.85;;
17794;SDS011;9021;50.882;4.326;2023-04-15T02:02:53;4.00;;;2.20;;
17794;SDS011;9021;50.882;4.326;2023-04-15T02:05:19;2.85;;;2.13;;
17794;SDS011;9021;50.882;4.326;2023-04-15T02:07:45;4.70;;;3.13;;
17794;SDS011;9021;50.882;4.326;2023-04-15T02:10:11;5.22;;;3.08;;
17794;SDS011;9021;50.882;4.326;2023-04-15T02:12:40;7.75;;;4.32;;
17794;SDS011;9021;50.882;4.326;2023-04-15T02:15:06;7.15;;;4.25;;
17794;SDS011;9021;50.882;4.326;2023-04-15T02:17:33;8.18;;;5.03;;
17794;SDS011;9021;50.882;4.326;2023-04-15T02:19:59;9.00;;;4.80;;
17794;SDS011;9021;50.882;4.326;2023-04-15T02:22:25;11.60;;;5.85;;
17794;SDS011;9021;50.882;4.326;2023-04-15T02:24:51;9.93;;;6.00;;
17794;SDS011;9021;50.882;4.326;2023-04-15T02:27:17;9.60;;;5.35;;
17794;SDS011;9021;50.882;4.326;2023-04-15T02:29:44;10.68;;;5.22;;
17794;SDS011;9021;50.882;4.326;2023-04-15T02:34:36;10.23;;;5.18;;
17794;SDS011;9021;50.882;4.326;2023-04-15T02:37:07;12.95;;;6.18;;
17794;SDS011;9021;50.882;4.326;2023-04-15T02:39:34;13.77;;;7.03;;
17794;SDS011;9021;50.882;4.326;2023-04-15T02:42:00;15.32;;;7.38;;
17794;SDS011;9021;50.882;4.326;2023-04-15T02:44:26;14.50;;;7.15;;
17794;SDS011;9021;50.882;4.326;2023-04-15T02:46:52;16.20;;;7.80;;
17794;SDS011;9021;50.882;4.326;2023-04-15T02:49:19;13.32;;;7.80;;
17794;SDS011;9021;50.882;4.326;2023-04-15T02:54:23;16.67;;;8.05;;
17794;SDS011;9021;50.882;4.326;2023-04-15T02:56:52;18.42;;;8.52;;
17794;SDS011;9021;50.882;4.326;2023-04-15T02:59:20;17.67;;;9.77;;
17794;SDS011;9021;50.882;4.326;2023-04-15T03:01:45;19.70;;;10.02;;
17794;SDS011;9021;50.882;4.326;2023-04-15T03:04:11;17.67;;;9.48;;
17794;SDS011;9021;50.882;4.326;2023-04-15T03:09:03;19.52;;;10.73;;
17794;SDS011;9021;50.882;4.326;2023-04-15T03:11:28;19.00;;;10.15;;
17794;SDS011;9021;50.882;4.326;2023-04-15T03:13:55;19.27;;;11.10;;
17794;SDS011;9021;50.882;4.326;2023-04-15T03:16:21;16.00;;;10.35;;
17794;SDS011;9021;50.882;4.326;2023-04-15T03:18:46;17.33;;;10.77;;
17794;SDS011;9021;50.882;4.326;2023-04-15T03:21:12;20.73;;;10.70;;
17794;SDS011;9021;50.882;4.326;2023-04-15T03:23:38;20.15;;;10.60;;
17794;SDS011;9021;50.882;4.326;2023-04-15T03:26:04;18.40;;;10.02;;
17794;SDS011;9021;50.882;4.326;2023-04-15T03:28:30;19.95;;;10.60;;
17794;SDS011;9021;50.882;4.326;2023-04-15T03:30:56;16.70;;;9.57;;
17794;SDS011;9021;50.882;4.326;2023-04-15T03:33:22;16.88;;;9.88;;
17794;SDS011;9021;50.882;4.326;2023-04-15T03:35:49;16.73;;;9.43;;
17794;SDS011;9021;50.882;4.326;2023-04-15T03:38:15;16.05;;;9.88;;
17794;SDS011;9021;50.882;4.326;2023-04-15T03:40:41;14.02;;;8.77;;
17794;SDS011;9021;50.882;4.326;2023-04-15T03:43:07;15.55;;;9.65;;
17794;SDS011;9021;50.882;4.326;2023-04-15T03:45:33;12.27;;;8.43;;
17794;SDS011;9021;50.882;4.326;2023-04-15T03:47:59;15.43;;;8.68;;
17794;SDS011;9021;50.882;4.326;2023-04-15T03:50:24;12.52;;;7.78;;
17794;SDS011;9021;50.882;4.326;2023-04-15T03:52:50;13.00;;;8.60;;
17794;SDS011;9021;50.882;4.326;2023-04-15T03:55:16;12.55;;;8.57;;
17794;SDS011;9021;50.882;4.326;2023-04-15T03:57:42;13.98;;;8.68;;
17794;SDS011;9021;50.882;4.326;2023-04-15T04:00:08;11.93;;;8.80;;
17794;SDS011;9021;50.882;4.326;2023-04-15T04:02:34;15.75;;;8.27;;
17794;SDS011;9021;50.882;4.326;2023-04-15T04:07:26;11.10;;;7.78;;
17794;SDS011;9021;50.882;4.326;2023-04-15T04:09:52;18.63;;;8.45;;
17794;SDS011;9021;50.882;4.326;2023-04-15T04:12:18;13.88;;;8.20;;
17794;SDS011;9021;50.882;4.326;2023-04-15T04:14:44;11.98;;;7.15;;
17794;SDS011;9021;50.882;4.326;2023-04-15T04:17:10;10.63;;;6.90;;
17794;SDS011;9021;50.882;4.326;2023-04-15T04:19:35;12.02;;;7.50;;
17794;SDS011;9021;50.882;4.326;2023-04-15T04:22:01;11.10;;;7.22;;
17794;SDS011;9021;50.882;4.326;2023-04-15T04:24:27;11.68;;;7.85;;
17794;SDS011;9021;50.882;4.326;2023-04-15T04:26:53;9.30;;;7.78;;
17794;SDS011;9021;50.882;4.326;2023-04-15T04:29:20;14.18;;;6.75;;
17794;SDS011;9021;50.882;4.326;2023-04-15T04:31:46;10.15;;;7.30;;
17794;SDS011;9021;50.882;4.326;2023-04-15T04:34:12;14.95;;;8.00;;
17794;SDS011;9021;50.882;4.326;2023-04-15T04:36:38;11.35;;;7.57;;
17794;SDS011;9021;50.882;4.326;2023-04-15T04:39:04;11.55;;;7.50;;
17794;SDS011;9021;50.882;4.326;2023-04-15T04:41:30;10.80;;;7.35;;
17794;SDS011;9021;50.882;4.326;2023-04-15T04:43:56;9.40;;;7.03;;
17794;SDS011;9021;50.882;4.326;2023-04-15T04:46:22;11.55;;;7.88;;
17794;SDS011;9021;50.882;4.326;2023-04-15T04:48:48;11.30;;;7.68;;
17794;SDS011;9021;50.882;4.326;2023-04-15T04:51:13;13.00;;;7.85;;
17794;SDS011;9021;50.882;4.326;2023-04-15T04:53:39;17.48;;;7.85;;
17794;SDS011;9021;50.882;4.326;2023-04-15T04:56:06;10.27;;;7.00;;
17794;SDS011;9021;50.882;4.326;2023-04-15T04:58:32;13.95;;;6.20;;
17794;SDS011;9021;50.882;4.326;2023-04-15T05:00:58;9.40;;;7.28;;
17794;SDS011;9021;50.882;4.326;2023-04-15T05:03:24;9.57;;;6.97;;
17794;SDS011;9021;50.882;4.326;2023-04-15T05:05:50;7.45;;;6.53;;
17794;SDS011;9021;50.882;4.326;2023-04-15T05:08:16;11.30;;;7.00;;
17794;SDS011;9021;50.882;4.326;2023-04-15T05:10:41;9.57;;;7.28;;
17794;SDS011;9021;50.882;4.326;2023-04-15T05:13:07;14.98;;;8.25;;
17794;SDS011;9021;50.882;4.326;2023-04-15T05:15:33;11.57;;;7.72;;
17794;SDS011;9021;50.882;4.326;2023-04-15T05:18:01;12.18;;;7.10;;
17794;SDS011;9021;50.882;4.326;2023-04-15T05:20:26;10.88;;;7.07;;
17794;SDS011;9021;50.882;4.326;2023-04-15T05:22:52;11.90;;;7.70;;
17794;SDS011;9021;50.882;4.326;2023-04-15T05:25:18;10.05;;;7.15;;
17794;SDS011;9021;50.882;4.326;2023-04-15T05:27:43;11.80;;;7.50;;
17794;SDS011;9021;50.882;4.326;2023-04-15T05:30:09;12.13;;;7.10;;
17794;SDS011;9021;50.882;4.326;2023-04-15T05:32:38;12.23;;;7.28;;
17794;SDS011;9021;50.882;4.326;2023-04-15T05:35:04;10.50;;;6.40;;
17794;SDS011;9021;50.882;4.326;2023-04-15T05:37:33;10.07;;;5.68;;
17794;SDS011;9021;50.882;4.326;2023-04-15T05:39:58;7.95;;;5.03;;
17794;SDS011;9021;50.882;4.326;2023-04-15T05:42:24;10.45;;;5.95;;
17794;SDS011;9021;50.882;4.326;2023-04-15T05:44:50;9.88;;;5.90;;
17794;SDS011;9021;50.882;4.326;2023-04-15T05:47:16;12.38;;;6.10;;
17794;SDS011;9021;50.882;4.326;2023-04-15T05:49:41;9.07;;;6.55;;
17794;SDS011;9021;50.882;4.326;2023-04-15T05:52:07;9.75;;;6.53;;
17794;SDS011;9021;50.882;4.326;2023-04-15T05:54:32;11.30;;;6.22;;
17794;SDS011;9021;50.882;4.326;2023-04-15T05:56:58;11.00;;;6.00;;
17794;SDS011;9021;50.882;4.326;2023-04-15T05:59:24;10.18;;;6.50;;
17794;SDS011;9021;50.882;4.326;2023-04-15T06:01:49;9.63;;;6.05;;
17794;SDS011;9021;50.882;4.326;2023-04-15T06:06:41;11.23;;;6.40;;
17794;SDS011;9021;50.882;4.326;2023-04-15T06:09:07;8.45;;;6.05;;
17794;SDS011;9021;50.882;4.326;2023-04-15T06:11:32;8.07;;;5.90;;
17794;SDS011;9021;50.882;4.326;2023-04-15T06:13:58;10.85;;;5.55;;
17794;SDS011;9021;50.882;4.326;2023-04-15T06:16:24;9.55;;;6.03;;
17794;SDS011;9021;50.882;4.326;2023-04-15T06:18:50;9.43;;;5.68;;
17794;SDS011;9021;50.882;4.326;2023-04-15T06:21:15;7.95;;;5.10;;
17794;SDS011;9021;50.882;4.326;2023-04-15T06:23:41;8.32;;;5.10;;
17794;SDS011;9021;50.882;4.326;2023-04-15T06:26:07;8.43;;;4.97;;
17794;SDS011;9021;50.882;4.326;2023-04-15T06:28:32;10.68;;;5.20;;
17794;SDS011;9021;50.882;4.326;2023-04-15T06:30:58;9.50;;;5.53;;
17794;SDS011;9021;50.882;4.326;2023-04-15T06:33:24;8.52;;;5.28;;
17794;SDS011;9021;50.882;4.326;2023-04-15T06:35:49;11.80;;;5.32;;
17794;SDS011;9021;50.882;4.326;2023-04-15T06:38:15;7.32;;;5.05;;
17794;SDS011;9021;50.882;4.326;2023-04-15T06:40:40;9.60;;;5.72;;
17794;SDS011;9021;50.882;4.326;2023-04-15T06:43:06;7.38;;;5.07;;
17794;SDS011;9021;50.882;4.326;2023-04-15T06:45:33;42.25;;;7.00;;
17794;SDS011;9021;50.882;4.326;2023-04-15T06:50:24;8.48;;;4.95;;
17794;SDS011;9021;50.882;4.326;2023-04-15T06:55:16;6.28;;;4.10;;
17794;SDS011;9021;50.882;4.326;2023-04-15T06:57:42;7.25;;;4.60;;
17794;SDS011;9021;50.882;4.326;2023-04-15T07:00:08;5.75;;;4.00;;
17794;SDS011;9021;50.882;4.326;2023-04-15T07:02:36;8.73;;;4.40;;
17794;SDS011;9021;50.882;4.326;2023-04-15T07:05:01;8.65;;;4.30;;
17794;SDS011;9021;50.882;4.326;2023-04-15T07:07:27;8.52;;;4.30;;
17794;SDS011;9021;50.882;4.326;2023-04-15T07:09:53;9.38;;;4.75;;
17794;SDS011;9021;50.882;4.326;2023-04-15T07:12:18;8.32;;;4.30;;
17794;SDS011;9021;50.882;4.326;2023-04-15T07:14:44;9.60;;;4.45;;
17794;SDS011;9021;50.882;4.326;2023-04-15T07:17:10;7.65;;;4.35;;
17794;SDS011;9021;50.882;4.326;2023-04-15T07:19:36;9.52;;;4.43;;
17794;SDS011;9021;50.882;4.326;2023-04-15T07:22:02;9.20;;;3.88;;
17794;SDS011;9021;50.882;4.326;2023-04-15T07:24:27;6.85;;;3.65;;
17794;SDS011;9021;50.882;4.326;2023-04-15T07:29:23;9.23;;;3.95;;
17794;SDS011;9021;50.882;4.326;2023-04-15T07:34:14;7.00;;;3.75;;
17794;SDS011;9021;50.882;4.326;2023-04-15T07:36:40;7.55;;;4.35;;
17794;SDS011;9021;50.882;4.326;2023-04-15T07:39:06;8.52;;;3.75;;
17794;SDS011;9021;50.882;4.326;2023-04-15T07:41:32;7.63;;;4.07;;
17794;SDS011;9021;50.882;4.326;2023-04-15T07:43:58;9.80;;;4.57;;
17794;SDS011;9021;50.882;4.326;2023-04-15T07:46:24;5.70;;;3.75;;
17794;SDS011;9021;50.882;4.326;2023-04-15T07:48:51;7.28;;;3.85;;
17794;SDS011;9021;50.882;4.326;2023-04-15T07:51:17;6.55;;;4.05;;
17794;SDS011;9021;50.882;4.326;2023-04-15T07:53:44;7.80;;;4.40;;
17794;SDS011;9021;50.882;4.326;2023-04-15T07:56:10;8.70;;;5.03;;
17794;SDS011;9021;50.882;4.326;2023-04-15T07:58:36;9.38;;;4.18;;
17794;SDS011;9021;50.882;4.326;2023-04-15T08:01:03;7.15;;;4.72;;
17794;SDS011;9021;50.882;4.326;2023-04-15T08:03:29;8.85;;;5.70;;
17794;SDS011;9021;50.882;4.326;2023-04-15T08:05:54;9.73;;;5.57;;
17794;SDS011;9021;50.882;4.326;2023-04-15T08:08:20;10.15;;;5.50;;
17794;SDS011;9021;50.882;4.326;2023-04-15T08:10:46;12.95;;;5.78;;
17794;SDS011;9021;50.882;4.326;2023-04-15T08:13:11;9.48;;;5.50;;
17794;SDS011;9021;50.882;4.326;2023-04-15T08:15:37;8.85;;;5.90;;
17794;SDS011;9021;50.882;4.326;2023-04-15T08:18:03;12.45;;;5.68;;
17794;SDS011;9021;50.882;4.326;2023-04-15T08:20:28;17.17;;;6.05;;
17794;SDS011;9021;50.882;4.326;2023-04-15T08:22:54;10.77;;;6.15;;
17794;SDS011;9021;50.882;4.326;2023-04-15T08:25:20;12.90;;;6.50;;
17794;SDS011;9021;50.882;4.326;2023-04-15T08:30:11;9.32;;;6.30;;
17794;SDS011;9021;50.882;4.326;2023-04-15T08:32:38;9.65;;;6.07;;
17794;SDS011;9021;50.882;4.326;2023-04-15T08:37:29;13.02;;;7.03;;
17794;SDS011;9021;50.882;4.326;2023-04-15T08:42:26;28.08;;;8.18;;
17794;SDS011;9021;50.882;4.326;2023-04-15T08:44:57;21.57;;;8.00;;
17794;SDS011;9021;50.882;4.326;2023-04-15T08:47:25;8.77;;;6.75;;
17794;SDS011;9021;50.882;4.326;2023-04-15T08:49:54;12.60;;;7.38;;
17794;SDS011;9021;50.882;4.326;2023-04-15T08:52:24;10.20;;;7.15;;
17794;SDS011;9021;50.882;4.326;2023-04-15T08:54:50;14.30;;;7.85;;
17794;SDS011;9021;50.882;4.326;2023-04-15T08:57:20;13.07;;;7.97;;
17794;SDS011;9021;50.882;4.326;2023-04-15T08:59:51;11.88;;;7.80;;
17794;SDS011;9021;50.882;4.326;2023-04-15T09:02:17;10.73;;;7.38;;
17794;SDS011;9021;50.882;4.326;2023-04-15T09:04:43;15.32;;;7.90;;
17794;SDS011;9021;50.882;4.326;2023-04-15T09:07:08;10.70;;;7.78;;
17794;SDS011;9021;50.882;4.326;2023-04-15T09:09:34;13.02;;;7.60;;
17794;SDS011;9021;50.882;4.326;2023-04-15T09:12:01;34.40;;;9.00;;
17794;SDS011;9021;50.882;4.326;2023-04-15T09:14:27;16.77;;;7.40;;
17794;SDS011;9021;50.882;4.326;2023-04-15T09:16:59;10.90;;;7.38;;
17794;SDS011;9021;50.882;4.326;2023-04-15T09:19:26;15.13;;;7.78;;
17794;SDS011;9021;50.882;4.326;2023-04-15T09:21:53;11.07;;;7.03;;
17794;SDS011;9021;50.882;4.326;2023-04-15T09:24:23;8.45;;;7.28;;
17794;SDS011;9021;50.882;4.326;2023-04-15T09:26:53;12.25;;;6.72;;
17794;SDS011;9021;50.882;4.326;2023-04-15T09:29:23;8.50;;;4.85;;
17794;SDS011;9021;50.882;4.326;2023-04-15T09:31:50;10.15;;;4.75;;
17794;SDS011;9021;50.882;4.326;2023-04-15T09:34:16;9.40;;;4.50;;
17794;SDS011;9021;50.882;4.326;2023-04-15T09:39:11;8.18;;;4.38;;
17794;SDS011;9021;50.882;4.326;2023-04-15T09:44:02;6.05;;;4.53;;
17794;SDS011;9021;50.882;4.326;2023-04-15T09:49:08;9.18;;;4.80;;
17794;SDS011;9021;50.882;4.326;2023-04-15T09:51:34;5.75;;;4.22;;
17794;SDS011;9021;50.882;4.326;2023-04-15T09:54:01;5.60;;;3.63;;
17794;SDS011;9021;50.882;4.326;2023-04-15T09:56:33;5.85;;;3.83;;
17794;SDS011;9021;50.882;4.326;2023-04-15T09:59:06;5.38;;;3.63;;
17794;SDS011;9021;50.882;4.326;2023-04-15T10:01:34;5.38;;;4.10;;
17794;SDS011;9021;50.882;4.326;2023-04-15T10:04:02;8.80;;;4.90;;
17794;SDS011;9021;50.882;4.326;2023-04-15T10:06:29;9.15;;;5.10;;
17794;SDS011;9021;50.882;4.326;2023-04-15T10:08:56;7.32;;;5.18;;
17794;SDS011;9021;50.882;4.326;2023-04-15T10:11:22;5.97;;;4.93;;
17794;SDS011;9021;50.882;4.326;2023-04-15T10:13:52;8.48;;;5.50;;
17794;SDS011;9021;50.882;4.326;2023-04-15T10:16:19;9.93;;;5.63;;
17794;SDS011;9021;50.882;4.326;2023-04-15T10:18:46;7.22;;;4.80;;
17794;SDS011;9021;50.882;4.326;2023-04-15T10:21:15;4.88;;;4.15;;
17794;SDS011;9021;50.882;4.326;2023-04-15T10:23:45;5.63;;;4.28;;
17794;SDS011;9021;50.882;4.326;2023-04-15T10:26:11;34.28;;;5.22;;
17794;SDS011;9021;50.882;4.326;2023-04-15T10:28:39;10.77;;;4.47;;
17794;SDS011;9021;50.882;4.326;2023-04-15T10:31:08;27.33;;;5.72;;
17794;SDS011;9021;50.882;4.326;2023-04-15T10:33:37;18.58;;;4.35;;
17794;SDS011;9021;50.882;4.326;2023-04-15T10:36:04;4.53;;;2.95;;
17794;SDS011;9021;50.882;4.326;2023-04-15T10:38:34;3.83;;;2.97;;
17794;SDS011;9021;50.882;4.326;2023-04-15T10:43:50;17.17;;;3.10;;
17794;SDS011;9021;50.882;4.326;2023-04-15T10:46:35;6.05;;;2.50;;
17794;SDS011;9021;50.882;4.326;2023-04-15T10:49:23;8.52;;;2.95;;
17794;SDS011;9021;50.882;4.326;2023-04-15T10:51:50;7.38;;;3.40;;
17794;SDS011;9021;50.882;4.326;2023-04-15T10:57:22;6.18;;;2.60;;
17794;SDS011;9021;50.882;4.326;2023-04-15T10:59:58;14.00;;;2.70;;
17794;SDS011;9021;50.882;4.326;2023-04-15T11:05:22;3.15;;;1.88;;
17794;SDS011;9021;50.882;4.326;2023-04-15T11:08:13;3.35;;;2.28;;
17794;SDS011;9021;50.882;4.326;2023-04-15T11:15:38;4.97;;;2.53;;
17794;SDS011;9021;50.882;4.326;2023-04-15T11:20:50;2.53;;;1.80;;
17794;SDS011;9021;50.882;4.326;2023-04-15T11:23:31;3.85;;;2.35;;
17794;SDS011;9021;50.882;4.326;2023-04-15T11:25:59;3.47;;;2.30;;
17794;SDS011;9021;50.882;4.326;2023-04-15T11:28:36;2.58;;;1.85;;
17794;SDS011;9021;50.882;4.326;2023-04-15T11:31:10;2.38;;;1.85;;
17794;SDS011;9021;50.882;4.326;2023-04-15T11:33:36;2.72;;;2.35;;
17794;SDS011;9021;50.882;4.326;2023-04-15T11:36:08;2.35;;;1.67;;
17794;SDS011;9021;50.882;4.326;2023-04-15T11:38:40;5.05;;;1.50;;
17794;SDS011;9021;50.882;4.326;2023-04-15T11:41:06;2.10;;;1.30;;
17794;SDS011;9021;50.882;4.326;2023-04-15T11:43:32;2.15;;;1.35;;
17794;SDS011;9021;50.882;4.326;2023-04-15T11:46:00;3.17;;;1.92;;
17794;SDS011;9021;50.882;4.326;2023-04-15T11:48:27;2.13;;;1.83;;
17794;SDS011;9021;50.882;4.326;2023-04-15T11:50:55;2.20;;;1.50;;
17794;SDS011;9021;50.882;4.326;2023-04-15T11:53:24;1.42;;;1.20;;
17794;SDS011;9021;50.882;4.326;2023-04-15T11:56:03;1.20;;;0.90;;
17794;SDS011;9021;50.882;4.326;2023-04-15T11:58:29;1.73;;;1.15;;
17794;SDS011;9021;50.882;4.326;2023-04-15T12:00:58;1.52;;;1.00;;
17794;SDS011;9021;50.882;4.326;2023-04-15T12:08:47;6.43;;;3.50;;
17794;SDS011;9021;50.882;4.326;2023-04-15T12:14:03;2.20;;;1.60;;
17794;SDS011;9021;50.882;4.326;2023-04-15T12:16:32;1.58;;;1.48;;
17794;SDS011;9021;50.882;4.326;2023-04-15T12:19:22;4.68;;;1.85;;
17794;SDS011;9021;50.882;4.326;2023-04-15T12:21:54;3.40;;;1.77;;
17794;SDS011;9021;50.882;4.326;2023-04-15T12:24:23;3.33;;;1.50;;
17794;SDS011;9021;50.882;4.326;2023-04-15T12:26:52;2.55;;;1.67;;
17794;SDS011;9021;50.882;4.326;2023-04-15T12:29:24;3.13;;;1.63;;
17794;SDS011;9021;50.882;4.326;2023-04-15T12:31:52;3.38;;;1.77;;
17794;SDS011;9021;50.882;4.326;2023-04-15T12:34:29;4.60;;;1.90;;
17794;SDS011;9021;50.882;4.326;2023-04-15T12:36:56;1.95;;;1.67;;
17794;SDS011;9021;50.882;4.326;2023-04-15T12:39:24;2.13;;;1.77;;
17794;SDS011;9021;50.882;4.326;2023-04-15T12:41:51;2.85;;;1.80;;
17794;SDS011;9021;50.882;4.326;2023-04-15T12:44:17;2.55;;;1.83;;
17794;SDS011;9021;50.882;4.326;2023-04-15T12:46:44;2.63;;;1.60;;
17794;SDS011;9021;50.882;4.326;2023-04-15T12:49:10;1.77;;;1.13;;
17794;SDS011;9021;50.882;4.326;2023-04-15T12:51:38;1.75;;;1.10;;
17794;SDS011;9021;50.882;4.326;2023-04-15T12:54:04;1.38;;;1.10;;
17794;SDS011;9021;50.882;4.326;2023-04-15T12:56:30;1.33;;;1.00;;
17794;SDS011;9021;50.882;4.326;2023-04-15T12:58:55;3.17;;;1.30;;
17794;SDS011;9021;50.882;4.326;2023-04-15T13:01:21;4.15;;;1.58;;
17794;SDS011;9021;50.882;4.326;2023-04-15T13:03:47;2.13;;;1.35;;
17794;SDS011;9021;50.882;4.326;2023-04-15T13:06:14;2.17;;;1.50;;
17794;SDS011;9021;50.882;4.326;2023-04-15T13:11:06;2.92;;;1.63;;
17794;SDS011;9021;50.882;4.326;2023-04-15T13:15:57;3.95;;;1.83;;
17794;SDS011;9021;50.882;4.326;2023-04-15T13:20:49;3.28;;;1.88;;
17794;SDS011;9021;50.882;4.326;2023-04-15T13:23:15;2.55;;;2.10;;
17794;SDS011;9021;50.882;4.326;2023-04-15T13:28:06;2.78;;;2.00;;
17794;SDS011;9021;50.882;4.326;2023-04-15T13:32:57;4.07;;;1.65;;
17794;SDS011;9021;50.882;4.326;2023-04-15T13:37:48;3.10;;;1.27;;
17794;SDS011;9021;50.882;4.326;2023-04-15T13:40:14;3.70;;;1.30;;
17794;SDS011;9021;50.882;4.326;2023-04-15T13:42:40;3.08;;;1.40;;
17794;SDS011;9021;50.882;4.326;2023-04-15T13:45:07;2.35;;;1.20;;
17794;SDS011;9021;50.882;4.326;2023-04-15T13:49:58;3.65;;;1.50;;
17794;SDS011;9021;50.882;4.326;2023-04-15T13:54:49;3.83;;;1.25;;
17794;SDS011;9021;50.882;4.326;2023-04-15T13:57:15;2.45;;;1.35;;
17794;SDS011;9021;50.882;4.326;2023-04-15T13:59:41;3.17;;;1.52;;
17794;SDS011;9021;50.882;4.326;2023-04-15T14:02:08;4.97;;;1.75;;
17794;SDS011;9021;50.882;4.326;2023-04-15T14:04:33;4.43;;;1.88;;
17794;SDS011;9021;50.882;4.326;2023-04-15T14:06:59;3.42;;;1.65;;
17794;SDS011;9021;50.882;4.326;2023-04-15T14:11:50;3.35;;;1.58;;
17794;SDS011;9021;50.882;4.326;2023-04-15T14:14:16;4.30;;;1.60;;
17794;SDS011;9021;50.882;4.326;2023-04-15T14:16:42;5.20;;;1.90;;
17794;SDS011;9021;50.882;4.326;2023-04-15T14:19:07;4.47;;;1.77;;
17794;SDS011;9021;50.882;4.326;2023-04-15T14:23:59;2.53;;;1.30;;
17794;SDS011;9021;50.882;4.326;2023-04-15T14:26:24;3.10;;;1.30;;
17794;SDS011;9021;50.882;4.326;2023-04-15T14:31:16;2.20;;;0.70;;
17794;SDS011;9021;50.882;4.326;2023-04-15T14:33:42;5.05;;;0.77;;
17794;SDS011;9021;50.882;4.326;2023-04-15T14:36:08;1.50;;;0.52;;
17794;SDS011;9021;50.882;4.326;2023-04-15T14:38:34;3.95;;;0.90;;
17794;SDS011;9021;50.882;4.326;2023-04-15T14:41:02;3.50;;;0.95;;
17794;SDS011;9021;50.882;4.326;2023-04-15T14:43:28;2.13;;;0.82;;
17794;SDS011;9021;50.882;4.326;2023-04-15T14:45:54;4.18;;;0.90;;
17794;SDS011;9021;50.882;4.326;2023-04-15T14:48:20;3.33;;;1.58;;
17794;SDS011;9021;50.882;4.326;2023-04-15T14:53:11;3.70;;;1.35;;
17794;SDS011;9021;50.882;4.326;2023-04-15T14:55:37;5.45;;;1.40;;
17794;SDS011;9021;50.882;4.326;2023-04-15T14:58:02;2.47;;;1.40;;
17794;SDS011;9021;50.882;4.326;2023-04-15T15:00:28;2.58;;;1.30;;
17794;SDS011;9021;50.882;4.326;2023-04-15T15:02:54;3.95;;;1.40;;
17794;SDS011;9021;50.882;4.326;2023-04-15T15:05:20;3.60;;;1.40;;
17794;SDS011;9021;50.882;4.326;2023-04-15T15:07:46;3.85;;;2.15;;
17794;SDS011;9021;50.882;4.326;2023-04-15T15:10:12;5.95;;;4.45;;
17794;SDS011;9021;50.882;4.326;2023-04-15T15:12:37;7.75;;;6.50;;
17794;SDS011;9021;50.882;4.326;2023-04-15T15:15:03;2.97;;;2.05;;
17794;SDS011;9021;50.882;4.326;2023-04-15T15:17:29;4.88;;;2.55;;
17794;SDS011;9021;50.882;4.326;2023-04-15T15:19:58;6.75;;;2.50;;
17794;SDS011;9021;50.882;4.326;2023-04-15T15:22:24;5.43;;;2.95;;
17794;SDS011;9021;50.882;4.326;2023-04-15T15:24:50;5.40;;;3.17;;
17794;SDS011;9021;50.882;4.326;2023-04-15T15:27:15;3.88;;;2.53;;
17794;SDS011;9021;50.882;4.326;2023-04-15T15:29:41;7.32;;;3.22;;
17794;SDS011;9021;50.882;4.326;2023-04-15T15:32:07;6.05;;;3.85;;
17794;SDS011;9021;50.882;4.326;2023-04-15T15:34:32;4.97;;;3.10;;
17794;SDS011;9021;50.882;4.326;2023-04-15T15:36:59;4.45;;;3.03;;
17794;SDS011;9021;50.882;4.326;2023-04-15T15:39:24;5.28;;;3.17;;
17794;SDS011;9021;50.882;4.326;2023-04-15T15:41:50;7.13;;;3.40;;
17794;SDS011;9021;50.882;4.326;2023-04-15T15:44:16;8.18;;;4.13;;
17794;SDS011;9021;50.882;4.326;2023-04-15T15:46:42;6.53;;;3.83;;
17794;SDS011;9021;50.882;4.326;2023-04-15T15:49:08;4.63;;;3.45;;
17794;SDS011;9021;50.882;4.326;2023-04-15T15:51:33;5.18;;;3.22;;
17794;SDS011;9021;50.882;4.326;2023-04-15T15:53:59;4.40;;;2.85;;
17794;SDS011;9021;50.882;4.326;2023-04-15T15:56:24;10.77;;;3.38;;
17794;SDS011;9021;50.882;4.326;2023-04-15T15:58:50;5.63;;;3.25;;
17794;SDS011;9021;50.882;4.326;2023-04-15T16:01:16;8.32;;;3.25;;
17794;SDS011;9021;50.882;4.326;2023-04-15T16:03:42;5.07;;;3.30;;
17794;SDS011;9021;50.882;4.326;2023-04-15T16:06:07;4.70;;;2.80;;
17794;SDS011;9021;50.882;4.326;2023-04-15T16:08:33;9.15;;;3.22;;
17794;SDS011;9021;50.882;4.326;2023-04-15T16:10:59;10.35;;;3.17;;
17794;SDS011;9021;50.882;4.326;2023-04-15T16:13:24;7.18;;;3.75;;
17794;SDS011;9021;50.882;4.326;2023-04-15T16:15:50;6.78;;;3.15;;
17794;SDS011;9021;50.882;4.326;2023-04-15T16:18:16;7.07;;;2.67;;
17794;SDS011;9021;50.882;4.326;2023-04-15T16:20:42;6.85;;;2.97;;
17794;SDS011;9021;50.882;4.326;2023-04-15T16:23:10;6.43;;;2.67;;
17794;SDS011;9021;50.882;4.326;2023-04-15T16:25:38;7.32;;;3.20;;
17794;SDS011;9021;50.882;4.326;2023-04-15T16:28:04;4.45;;;2.47;;
17794;SDS011;9021;50.882;4.326;2023-04-15T16:30:30;7.50;;;3.00;;